• Join FlightAware (Why Join?)
  • Login
  • US Flag 
12:10AM EST


 

Airport Tracker/Info


-or-


 

Live Flight TrackerFlight Track Log ✈ N325PZ ✈ 02-Jul-2014 ✈ KPVD - KFRG

Flight Track Log - Related Links

Times and Time Zones

All times are in EDT time to prevent confusion due to time zone crossing. See the N325PZ flight status page for this flight to view local times or setup timezone preferences in your user account.

Time Position Orientation Groundspeed Altitude Reporting Facility
EDT Latitude Longitude Course Direction KTS MPH feet Rate Location/Type
05:34PM 41.6997 -71.4694 239° Southwest 110 127 900  Level Boston Center
05:35PM 41.6908 -71.4886 238° Southwest 115 132 1,100 480 Climbing Boston Center
05:35PM 41.6803 -71.5114 238° Southwest 130 150 1,400 480 Climbing Boston Center
05:36PM 41.6714 -71.5303 238° Southwest 129 148 1,600 360 Climbing Boston Center
05:36PM 41.6589 -71.5525 233° Southwest 134 154 1,800 420 Climbing Boston Center
05:37PM 41.6511 -71.5711 241° Southwest 131 151 2,100 480 Climbing Boston Center
05:37PM 41.6400 -71.5917 234° Southwest 124 143 2,300 480 Climbing Boston Center
05:38PM 41.6331 -71.6094 242° Southwest 125 144 2,600 480 Climbing Boston Center
05:38PM 41.6236 -71.6289 237° Southwest 116 133 2,800 480 Climbing Boston Center
05:39PM 41.6142 -71.6489 238° Southwest 119 137 3,100 300 Climbing Boston Center
05:39PM 41.6042 -71.6708 239° Southwest 118 136 3,200 240 Climbing Boston Center
05:40PM 41.5958 -71.6864 234° Southwest 119 137 3,400 240 Climbing Boston Center
05:40PM 41.5858 -71.7072 237° Southwest 122 140 3,500 240 Climbing Boston Center
05:41PM 41.5772 -71.7250 237° Southwest 121 139 3,700 300 Climbing Boston Center
05:41PM 41.5669 -71.7464 237° Southwest 124 143 3,800 240 Climbing Boston Center
05:42PM 41.5581 -71.7639 236° Southwest 123 142 4,000 300 Climbing Boston Center
05:43PM 41.5442 -71.7928 237° Southwest 126 145 4,200 240 Climbing Boston Center
05:43PM 41.5375 -71.8058 236° Southwest 123 142 4,300 300 Climbing Boston Center
05:44PM 41.5253 -71.8317 238° Southwest 128 147 4,500 180 Climbing Boston Center
05:44PM 41.5178 -71.8453 234° Southwest 125 144 4,500  Level Boston Center
05:45PM 41.5025 -71.8781 238° Southwest 134 154 4,500  Level Boston Center
05:45PM 41.4975 -71.8864 231° Southwest 130 150 4,500  Level Boston Center
05:46PM 41.4836 -71.9169 239° Southwest 137 158 4,500  Level Boston Center
05:46PM 41.4753 -71.9331 235° Southwest 136 157 4,500  Level Boston Center
05:47PM 41.4614 -71.9606 236° Southwest 138 159 4,500  Level Boston Center
05:47PM 41.4536 -71.9756 235° Southwest 136 157 4,500  Level Boston Center
05:48PM 41.4328 -72.0203 238° Southwest 140 161 4,500  Level Boston Center
05:49PM 41.4203 -72.0431 234° Southwest 143 165 4,500  Level Boston Center
05:49PM 41.4111 -72.0647 241° Southwest 141 162 4,500  Level Boston Center
05:50PM 41.3981 -72.0864 231° Southwest 142 163 4,500  Level Boston Center
05:50PM 41.3872 -72.1106 239° Southwest 141 162 4,500  Level Boston Center
05:51PM 41.3778 -72.1306 238° Southwest 142 163 4,500  Level Boston Center
05:51PM 41.3661 -72.1544 237° Southwest 141 162 4,500  Level Boston Center
05:52PM 41.3550 -72.1767 236° Southwest 140 161 4,500  Level Boston Center
05:52PM 41.3450 -72.1978 238° Southwest 141 162 4,500  Level Boston Center
05:53PM 41.3214 -72.2433 235° Southwest 141 162 4,500  Level Boston Center
05:54PM 41.3003 -72.2842 235° Southwest 141 162 4,500  Level Boston Center
05:55PM 41.2775 -72.3319 238° Southwest 141 162 4,500 -60 Level Boston Center
05:56PM 41.2558 -72.3758 237° Southwest 142 163 4,400 -60 Descending Boston Center
05:57PM 41.2336 -72.4200 236° Southwest 142 163 4,400  Level Boston Center
05:58PM 41.2103 -72.4653 236° Southwest 143 165 4,400  Level Boston Center
05:59PM 41.1875 -72.5108 236° Southwest 146 168 4,400  Level Boston Center
06:00PM 41.1653 -72.5553 236° Southwest 146 168 4,400  Level Boston Center
06:01PM 41.1436 -72.5994 237° Southwest 146 168 4,400  Level Boston Center
06:02PM 41.1114 -72.6317 217° Southwest 146 168 4,400  Level Boston Center
06:03PM 41.0828 -72.6694 225° Southwest 146 168 4,400  Level Boston Center
06:04PM 41.0586 -72.7239 240° Southwest 146 168 4,400  Level Boston Center
06:05PM 41.0367 -72.7686 237° Southwest 146 168 4,400  Level Boston Center
06:06PM 41.0156 -72.8136 238° Southwest 146 168 4,400  Level Boston Center
06:07PM 40.9942 -72.8586 238° Southwest 146 168 4,400  Level Boston Center
06:08PM 40.9728 -72.9044 238° Southwest 146 168 4,400 -60 Level Boston Center
06:09PM 40.9511 -72.9492 237° Southwest 146 168 4,300 -180 Descending Boston Center
06:11PM 40.9286 -72.9964 238° Southwest 148 170 4,100 -300 Descending Boston Center
06:12PM 40.9008 -73.0553 238° Southwest 155 178 3,700 -360 Descending Boston Center
06:13PM 40.8778 -73.1031 237° Southwest 155 178 3,400 -240 Descending Boston Center
06:13PM 40.8500 -73.1500 232° Southwest 157 181 3,300 -300 Descending New York TRACON
06:16PM 40.8150 -73.2500 245° Southwest 155 178 2,500 -360 Descending Boston Center
06:17PM 40.8053 -73.3033 256° West 155 178 2,200 -300 Descending Boston Center
06:18PM 40.7983 -73.3575 260° West 154 177 1,900 -360 Descending Boston Center
06:19PM 40.7922 -73.4097 261° West 152 175 1,500 -600 Descending Boston Center
06:20PM 40.7725 -73.4097 180° South 126 145 700 -540 Descending Boston Center
06:21PM 40.7550 -73.4142 191° South 93 107 500 -240 Descending Boston Center